Time;durP1;ratioP1;P1;durP2;ratioP2;P2;SDS_P1;SDS_P2;PMS_P1;PMS_P2;Temp;Humidity;BMP_temperature;BMP_pressure;BME280_temperature;BME280_humidity;BME280_pressure;Samples;Min_cycle;Max_cycle;Signal;HPM_P1;HPM_P2
2022/04/17 00:02:18;;;;;;;0.00;0.00;;;6.40;99.90;;;;;;5061467;28;20047;-62
2022/04/17 00:04:43;;;;;;;0.00;0.00;;;6.30;99.90;;;;;;5060392;28;20067;-62
2022/04/17 00:07:09;;;;;;;0.00;0.00;;;6.30;99.90;;;;;;5061678;28;20388;-63
2022/04/17 00:09:34;;;;;;;0.10;0.10;;;6.40;99.90;;;;;;5061426;28;20048;-62
2022/04/17 00:12:01;;;;;;;0.00;0.00;;;6.30;99.90;;;;;;5061619;28;20036;-62
2022/04/17 00:14:27;;;;;;;0.00;0.00;;;6.20;99.90;;;;;;5058981;28;20058;-62
2022/04/17 00:16:55;;;;;;;0.00;0.00;;;6.20;99.90;;;;;;5061539;28;20052;-63
2022/04/17 00:19:20;;;;;;;0.00;0.00;;;6.20;99.90;;;;;;5060283;28;20446;-63
2022/04/17 00:21:47;;;;;;;0.00;0.00;;;6.20;99.90;;;;;;5061076;28;20389;-62
2022/04/17 00:24:13;;;;;;;0.00;0.00;;;6.20;99.90;;;;;;5061230;28;20127;-63
2022/04/17 00:26:39;;;;;;;0.30;0.10;;;6.10;99.90;;;;;;5061847;28;20032;-65
2022/04/17 00:29:05;;;;;;;0.00;0.00;;;6.10;99.90;;;;;;5061735;28;20051;-65
2022/04/17 00:31:30;;;;;;;0.00;0.00;;;6.30;99.90;;;;;;5042048;28;20080;-65
2022/04/17 00:33:56;;;;;;;0.00;0.00;;;6.10;99.90;;;;;;5059424;28;20519;-62
2022/04/17 00:36:22;;;;;;;0.00;0.00;;;6.00;99.90;;;;;;5060831;28;20049;-62
2022/04/17 00:38:47;;;;;;;0.00;0.00;;;6.00;99.90;;;;;;5061396;28;20044;-65
2022/04/17 00:41:13;;;;;;;0.00;0.00;;;6.10;99.90;;;;;;5060661;28;20131;-62
2022/04/17 00:43:46;;;;;;;0.00;0.00;;;6.00;99.90;;;;;;5061610;28;20048;-62
2022/04/17 00:46:12;;;;;;;0.52;0.52;;;6.00;99.90;;;;;;5054440;28;20167;-62
2022/04/17 00:48:39;;;;;;;0.00;0.00;;;6.00;99.90;;;;;;5045921;28;20558;-62
2022/04/17 00:51:05;;;;;;;0.35;0.20;;;6.00;99.90;;;;;;5041166;28;20047;-65
2022/04/17 00:53:32;;;;;;;0.00;0.00;;;6.10;99.90;;;;;;5040484;28;20488;-64
2022/04/17 00:55:57;;;;;;;0.00;0.00;;;5.90;99.90;;;;;;5040930;28;20444;-62
2022/04/17 00:58:24;;;;;;;0.00;0.00;;;5.90;99.90;;;;;;5040852;28;20135;-62
2022/04/17 01:00:50;;;;;;;0.00;0.00;;;5.90;99.90;;;;;;5041196;28;20041;-62
2022/04/17 01:03:17;;;;;;;0.00;0.00;;;5.90;99.90;;;;;;5040154;28;20055;-62
2022/04/17 01:05:44;;;;;;;0.05;0.05;;;5.90;99.90;;;;;;5040230;28;20064;-62
2022/04/17 01:08:10;;;;;;;0.00;0.00;;;5.80;99.90;;;;;;5041501;28;20439;-62
2022/04/17 01:10:37;;;;;;;0.00;0.00;;;5.80;99.90;;;;;;5049660;22;20040;-63
2022/04/17 01:13:04;;;;;;;0.00;0.00;;;5.80;99.90;;;;;;5051679;28;20052;-64
2022/04/17 01:15:30;;;;;;;0.00;0.00;;;5.70;99.90;;;;;;5056040;28;20080;-63
2022/04/17 01:17:56;;;;;;;0.00;0.00;;;5.70;99.90;;;;;;5040627;28;20045;-62
2022/04/17 01:20:23;;;;;;;0.00;0.00;;;5.70;99.90;;;;;;5040868;28;20067;-62
2022/04/17 01:26:56;;;;;;;0.10;0.10;;;5.60;99.90;;;;;;5040572;28;20045;-63
2022/04/17 01:28:40;;;;;;;0.00;0.00;;;5.60;99.90;;;;;;5028643;28;20053;-62
2022/04/17 01:31:06;;;;;;;0.00;0.00;;;5.50;99.90;;;;;;5041357;28;20045;-63
2022/04/17 01:33:32;;;;;;;0.00;0.00;;;5.50;99.90;;;;;;5039366;28;20041;-64
2022/04/17 01:35:57;;;;;;;0.00;0.00;;;5.50;99.90;;;;;;5040967;28;20065;-63
2022/04/17 01:38:23;;;;;;;0.00;0.00;;;5.40;99.90;;;;;;5042677;28;20076;-63
2022/04/17 01:40:49;;;;;;;0.00;0.00;;;5.40;99.90;;;;;;5044143;28;20044;-63
2022/04/17 01:43:14;;;;;;;0.00;0.00;;;5.40;99.90;;;;;;5044590;28;20073;-63
2022/04/17 01:45:40;;;;;;;0.00;0.00;;;5.40;99.90;;;;;;5047244;28;20048;-64
2022/04/17 01:48:06;;;;;;;0.00;0.00;;;5.30;99.90;;;;;;5053022;28;20609;-63
2022/04/17 01:50:32;;;;;;;0.00;0.00;;;5.30;99.90;;;;;;5043371;28;20075;-63
2022/04/17 01:53:01;;;;;;;0.00;0.00;;;5.20;99.90;;;;;;5044591;28;20041;-63
2022/04/17 01:55:28;;;;;;;0.00;0.00;;;5.20;99.90;;;;;;5044113;28;20198;-62
2022/04/17 01:57:53;;;;;;;0.00;0.00;;;5.20;99.90;;;;;;5044044;28;20048;-62
2022/04/17 02:00:19;;;;;;;0.00;0.00;;;5.10;99.90;;;;;;5043808;28;20414;-62
2022/04/17 02:02:44;;;;;;;0.00;0.00;;;5.10;99.90;;;;;;5043728;28;20045;-62
2022/04/17 02:05:10;;;;;;;0.10;0.10;;;5.10;99.90;;;;;;5044265;28;20048;-62
2022/04/17 02:07:37;;;;;;;0.00;0.00;;;5.10;99.90;;;;;;5043938;28;20116;-64
2022/04/17 02:10:06;;;;;;;0.00;0.00;;;5.10;99.90;;;;;;5044042;28;20057;-65
2022/04/17 02:12:33;;;;;;;0.00;0.00;;;5.00;99.90;;;;;;5042136;28;20088;-64
2022/04/17 02:14:59;;;;;;;0.00;0.00;;;5.00;99.90;;;;;;5043613;28;20361;-64
2022/04/17 02:17:24;;;;;;;0.00;0.00;;;5.00;99.90;;;;;;5058578;28;20378;-64
2022/04/17 02:19:51;;;;;;;0.00;0.00;;;4.90;99.90;;;;;;5044009;28;20036;-64
2022/04/17 02:22:17;;;;;;;0.00;0.00;;;4.90;99.90;;;;;;5043655;28;20049;-64
2022/04/17 02:24:42;;;;;;;0.00;0.00;;;4.80;99.90;;;;;;5043333;28;20043;-65
2022/04/17 02:27:08;;;;;;;0.00;0.00;;;4.90;99.90;;;;;;5059769;28;20057;-64
2022/04/17 02:29:33;;;;;;;0.00;0.00;;;4.80;99.90;;;;;;5043538;28;20627;-64
2022/04/17 02:31:59;;;;;;;0.00;0.00;;;4.80;99.90;;;;;;5043870;28;20523;-65
2022/04/17 02:34:25;;;;;;;0.00;0.00;;;4.80;99.90;;;;;;5041856;28;20483;-64
2022/04/17 02:36:50;;;;;;;0.00;0.00;;;4.80;99.90;;;;;;5043735;28;20041;-64
2022/04/17 02:39:16;;;;;;;0.00;0.00;;;4.80;99.90;;;;;;5043278;28;20510;-66
2022/04/17 02:41:41;;;;;;;0.00;0.00;;;4.80;99.90;;;;;;5043306;28;20047;-65
2022/04/17 02:44:07;;;;;;;3.20;1.45;;;4.80;99.90;;;;;;5059550;28;20115;-64
2022/04/17 02:49:17;;;;;;;0.00;0.00;;;4.80;99.90;;;;;;5061008;28;20353;-64
2022/04/17 02:51:42;;;;;;;0.00;0.00;;;4.80;99.90;;;;;;5063085;28;20058;-65
2022/04/17 02:54:08;;;;;;;0.00;0.00;;;4.90;99.90;;;;;;5063860;28;20044;-64
2022/04/17 02:56:33;;;;;;;0.00;0.00;;;4.70;99.90;;;;;;5063023;28;20049;-64
2022/04/17 02:58:59;;;;;;;0.00;0.00;;;5.00;99.90;;;;;;5062617;28;20505;-65
2022/04/17 03:06:54;;;;;;;0.00;0.00;;;4.80;99.90;;;;;;5063452;28;20181;-64
2022/04/17 03:09:20;;;;;;;0.00;0.00;;;5.30;99.90;;;;;;5062459;28;20131;-64
2022/04/17 03:11:45;;;;;;;0.00;0.00;;;4.70;99.90;;;;;;5062265;28;20044;-65
2022/04/17 03:14:11;;;;;;;0.00;0.00;;;4.70;99.90;;;;;;5062607;28;20047;-64
2022/04/17 03:16:37;;;;;;;0.10;0.10;;;4.60;99.90;;;;;;5062882;28;20137;-63
2022/04/17 03:19:02;;;;;;;0.00;0.00;;;4.60;99.90;;;;;;5062304;28;20044;-64
2022/04/17 03:21:28;;;;;;;0.10;0.10;;;4.50;99.90;;;;;;5062297;28;20047;-64
2022/04/17 03:23:54;;;;;;;0.10;0.10;;;4.50;99.90;;;;;;5062981;28;20120;-65
2022/04/17 03:26:19;;;;;;;0.00;0.00;;;4.50;99.90;;;;;;5062402;28;20041;-64
2022/04/17 03:28:45;;;;;;;0.00;0.00;;;4.40;99.90;;;;;;5062133;28;20868;-65
2022/04/17 03:31:11;;;;;;;0.00;0.00;;;4.40;99.90;;;;;;5062254;28;20071;-64
2022/04/17 03:33:36;;;;;;;0.00;0.00;;;4.40;99.90;;;;;;5061980;28;20071;-64
2022/04/17 03:36:02;;;;;;;0.00;0.00;;;4.40;99.90;;;;;;5061370;28;20123;-65
2022/04/17 03:38:28;;;;;;;0.00;0.00;;;4.40;99.90;;;;;;5061457;28;20037;-64
2022/04/17 03:40:54;;;;;;;0.00;0.00;;;4.40;99.90;;;;;;5062318;28;20110;-64
2022/04/17 03:43:22;;;;;;;0.00;0.00;;;4.40;99.90;;;;;;5060561;28;20491;-63
2022/04/17 03:45:49;;;;;;;0.00;0.00;;;4.40;99.90;;;;;;5056038;28;20434;-63
2022/04/17 03:48:17;;;;;;;1.25;0.95;;;4.50;99.90;;;;;;5050138;28;20040;-63
2022/04/17 03:50:43;;;;;;;0.00;0.00;;;4.40;99.90;;;;;;5042400;28;20059;-64
2022/04/17 03:53:09;;;;;;;0.00;0.00;;;4.40;99.90;;;;;;5057964;28;20037;-63
2022/04/17 03:55:35;;;;;;;0.08;0.08;;;4.30;99.90;;;;;;5041424;28;20055;-63
2022/04/17 03:58:04;;;;;;;0.00;0.00;;;4.30;99.90;;;;;;5057432;28;20045;-64
2022/04/17 04:00:30;;;;;;;0.00;0.00;;;4.30;99.90;;;;;;5041213;28;20055;-63
2022/04/17 04:02:56;;;;;;;0.00;0.00;;;4.30;99.90;;;;;;5040987;28;20622;-64
2022/04/17 04:05:21;;;;;;;0.00;0.00;;;4.50;99.90;;;;;;5056911;28;20049;-63
2022/04/17 04:07:48;;;;;;;0.10;0.10;;;4.30;99.90;;;;;;5042357;28;20079;-63
2022/04/17 04:10:14;;;;;;;0.10;0.10;;;4.30;99.90;;;;;;5041419;28;20044;-61
2022/04/17 04:12:40;;;;;;;0.00;0.00;;;4.30;99.90;;;;;;5040972;28;20130;-62
2022/04/17 04:15:07;;;;;;;0.00;0.00;;;4.20;99.90;;;;;;5042342;28;20571;-62
2022/04/17 04:17:33;;;;;;;0.00;0.00;;;4.10;99.90;;;;;;5040824;28;20041;-62
2022/04/17 04:19:59;;;;;;;0.00;0.00;;;4.30;99.90;;;;;;5041296;28;20724;-62
2022/04/17 04:22:25;;;;;;;0.30;0.30;;;4.70;99.90;;;;;;5041579;28;20098;-62
2022/04/17 04:24:51;;;;;;;0.00;0.00;;;3.90;99.90;;;;;;5057098;28;20045;-62
2022/04/17 04:30:01;;;;;;;0.00;0.00;;;3.90;99.90;;;;;;5041279;28;20056;-65
2022/04/17 04:32:27;;;;;;;0.00;0.00;;;3.90;99.90;;;;;;5055607;28;20052;-64
2022/04/17 04:34:58;;;;;;;0.00;0.00;;;3.90;99.90;;;;;;5041531;28;20475;-65
2022/04/17 04:37:24;;;;;;;0.00;0.00;;;3.90;99.90;;;;;;5041253;28;20044;-65
2022/04/17 04:39:50;;;;;;;0.00;0.00;;;3.90;99.90;;;;;;5041419;28;20036;-64
2022/04/17 04:42:17;;;;;;;0.00;0.00;;;3.90;99.90;;;;;;5041216;28;20072;-64
2022/04/17 04:44:42;;;;;;;0.00;0.00;;;3.90;99.90;;;;;;5041163;28;20430;-65
2022/04/17 04:47:08;;;;;;;0.00;0.00;;;4.00;99.90;;;;;;5052492;28;20136;-65
2022/04/17 04:49:33;;;;;;;0.00;0.00;;;3.90;99.90;;;;;;5041300;28;20491;-64
2022/04/17 04:52:01;;;;;;;0.00;0.00;;;4.00;99.90;;;;;;5041382;28;20437;-65
2022/04/17 04:54:28;;;;;;;0.00;0.00;;;4.00;99.90;;;;;;5041273;28;20073;-64
2022/04/17 04:56:53;;;;;;;0.00;0.00;;;4.00;99.90;;;;;;5056829;28;20145;-65
2022/04/17 04:59:20;;;;;;;0.00;0.00;;;4.10;99.90;;;;;;5040954;28;20521;-64
2022/04/17 05:01:47;;;;;;;0.00;0.00;;;4.10;99.90;;;;;;5040883;28;20080;-64
2022/04/17 05:04:14;;;;;;;0.00;0.00;;;4.20;99.90;;;;;;5040646;28;20052;-64
2022/04/17 05:06:39;;;;;;;0.00;0.00;;;4.20;99.90;;;;;;5041519;28;20049;-64
2022/04/17 05:09:05;;;;;;;0.00;0.00;;;4.20;99.90;;;;;;5041500;28;20033;-64
2022/04/17 05:11:31;;;;;;;0.00;0.00;;;4.20;99.90;;;;;;5040409;28;20210;-65
2022/04/17 05:13:57;;;;;;;0.00;0.00;;;4.30;99.90;;;;;;5044247;28;20053;-64
2022/04/17 05:16:23;;;;;;;0.00;0.00;;;4.30;99.90;;;;;;5044661;28;20048;-64
2022/04/17 05:18:56;;;;;;;0.03;0.03;;;4.30;99.90;;;;;;5044202;28;20041;-64
2022/04/17 05:21:31;;;;;;;0.00;0.00;;;4.40;99.90;;;;;;5044570;28;20123;-64
2022/04/17 05:23:57;;;;;;;0.00;0.00;;;4.50;99.90;;;;;;5045212;28;20048;-65
2022/04/17 05:26:23;;;;;;;0.20;0.20;;;4.60;99.90;;;;;;5044280;28;20175;-64
2022/04/17 05:28:50;;;;;;;0.00;0.00;;;4.70;99.90;;;;;;5045092;28;20072;-64
2022/04/17 05:31:16;;;;;;;0.00;0.00;;;4.80;99.90;;;;;;5044531;28;20116;-64
2022/04/17 05:33:42;;;;;;;0.60;0.28;;;5.00;99.90;;;;;;5059075;28;20199;-65
2022/04/17 05:36:08;;;;;;;0.00;0.00;;;5.40;99.90;;;;;;5045055;28;20041;-64
2022/04/17 05:38:33;;;;;;;0.05;0.05;;;5.70;99.90;;;;;;5044463;28;20064;-64
2022/04/17 05:40:59;;;;;;;0.00;0.00;;;6.00;99.90;;;;;;5044827;28;20638;-65
2022/04/17 05:43:25;;;;;;;0.08;0.08;;;6.30;99.90;;;;;;5043729;28;20167;-64
2022/04/17 05:45:51;;;;;;;0.22;0.22;;;6.70;99.90;;;;;;5047313;28;20037;-65
2022/04/17 05:48:17;;;;;;;0.00;0.00;;;7.10;99.90;;;;;;5049828;28;20049;-64
2022/04/17 05:50:43;;;;;;;0.20;0.20;;;7.40;99.90;;;;;;5044579;28;20404;-64
2022/04/17 05:53:08;;;;;;;0.10;0.10;;;7.80;99.90;;;;;;5059707;28;20037;-64
2022/04/17 05:55:37;;;;;;;0.00;0.00;;;8.10;99.90;;;;;;5044172;28;20045;-65
2022/04/17 05:58:03;;;;;;;0.25;0.25;;;8.50;99.90;;;;;;5044452;28;20037;-65
2022/04/17 06:00:29;;;;;;;0.32;0.32;;;8.30;99.90;;;;;;5041986;28;20099;-65
2022/04/17 06:02:54;;;;;;;0.00;0.00;;;8.70;99.90;;;;;;5043681;28;20593;-65
2022/04/17 06:05:20;;;;;;;0.10;0.10;;;9.20;99.90;;;;;;5059064;28;20041;-64
2022/04/17 06:07:47;;;;;;;0.00;0.00;;;9.50;99.90;;;;;;5044275;28;20059;-65
2022/04/17 06:10:14;;;;;;;0.10;0.10;;;9.80;99.90;;;;;;5058479;28;20087;-64
2022/04/17 06:12:40;;;;;;;0.03;0.03;;;10.30;99.90;;;;;;5044044;28;20049;-64
2022/04/17 06:15:07;;;;;;;1.95;0.43;;;10.20;99.90;;;;;;5044104;28;20049;-64
2022/04/17 06:17:38;;;;;;;0.00;0.00;;;9.70;99.90;;;;;;5042280;28;20124;-65
2022/04/17 06:20:06;;;;;;;0.10;0.10;;;10.20;99.90;;;;;;5043859;28;20056;-65
2022/04/17 06:22:35;;;;;;;0.75;0.47;;;9.90;99.90;;;;;;5058536;28;20063;-60
2022/04/17 06:25:06;;;;;;;0.10;0.10;;;10.30;99.90;;;;;;5043021;28;20126;-65
2022/04/17 06:27:39;;;;;;;1.55;0.45;;;10.40;99.90;;;;;;5059054;28;20053;-65
2022/04/17 06:30:07;;;;;;;0.10;0.10;;;10.30;99.90;;;;;;5043923;28;20044;-63
2022/04/17 06:32:33;;;;;;;1.15;0.70;;;10.60;99.90;;;;;;5041720;28;20084;-63
2022/04/17 06:34:59;;;;;;;0.20;0.20;;;10.60;99.90;;;;;;5043802;28;20088;-63
2022/04/17 06:37:24;;;;;;;0.20;0.20;;;10.40;99.90;;;;;;5043138;28;20073;-63
2022/04/17 06:39:50;;;;;;;0.10;0.10;;;10.80;99.90;;;;;;5043659;28;20078;-62
2022/04/17 06:42:15;;;;;;;0.00;0.00;;;11.00;99.90;;;;;;5042660;28;20818;-62
2022/04/17 06:44:41;;;;;;;2.38;0.63;;;11.10;99.90;;;;;;5058994;28;20044;-62
2022/04/17 06:47:06;;;;;;;0.00;0.00;;;11.10;99.90;;;;;;5054592;28;20116;-62
2022/04/17 06:49:32;;;;;;;0.03;0.03;;;11.40;99.90;;;;;;5058009;28;20044;-64
2022/04/17 06:51:58;;;;;;;0.00;0.00;;;10.90;99.90;;;;;;5058642;28;20159;-62
2022/04/17 06:54:23;;;;;;;0.28;0.28;;;12.20;99.90;;;;;;5058213;28;20076;-62
2022/04/17 06:56:49;;;;;;;0.00;0.00;;;11.20;99.90;;;;;;5043400;28;20541;-62
2022/04/17 06:59:15;;;;;;;0.32;0.10;;;11.50;99.90;;;;;;5057981;28;20073;-62
2022/04/17 07:01:40;;;;;;;0.10;0.10;;;11.50;99.90;;;;;;5057674;28;20071;-64
2022/04/17 07:04:06;;;;;;;0.10;0.10;;;11.40;99.90;;;;;;5043697;28;20033;-64
2022/04/17 07:06:31;;;;;;;0.30;0.30;;;11.70;99.90;;;;;;5042779;28;20185;-60
2022/04/17 07:08:57;;;;;;;0.40;0.17;;;11.10;99.90;;;;;;5042248;28;20384;-62
2022/04/17 07:11:23;;;;;;;0.00;0.00;;;12.40;99.90;;;;;;5042337;28;20057;-63
2022/04/17 07:13:49;;;;;;;0.60;0.60;;;11.40;99.90;;;;;;5042718;28;20132;-63
2022/04/17 07:16:14;;;;;;;0.43;0.30;;;11.40;99.90;;;;;;5042246;28;20119;-61
2022/04/17 07:18:40;;;;;;;0.00;0.00;;;11.60;99.90;;;;;;5042321;28;20072;-62
2022/04/17 07:21:05;;;;;;;0.75;0.40;;;11.50;99.90;;;;;;5041556;28;20044;-63
2022/04/17 07:23:31;;;;;;;0.13;0.13;;;10.70;99.90;;;;;;5040725;28;20041;-62
2022/04/17 07:25:57;;;;;;;0.30;0.30;;;10.50;99.90;;;;;;5041924;28;20472;-63
2022/04/17 07:28:23;;;;;;;0.43;0.30;;;10.80;99.90;;;;;;5042016;28;20036;-63
2022/04/17 07:30:49;;;;;;;0.00;0.00;;;10.90;99.90;;;;;;5057621;28;20407;-62
2022/04/17 07:33:16;;;;;;;0.55;0.50;;;11.40;99.90;;;;;;5041627;28;20037;-62
2022/04/17 07:35:43;;;;;;;0.57;0.20;;;11.30;99.90;;;;;;5047547;28;20104;-62
2022/04/17 07:38:08;;;;;;;0.13;0.10;;;11.00;99.90;;;;;;5057966;28;20053;-63
2022/04/17 07:40:35;;;;;;;0.30;0.20;;;11.00;99.90;;;;;;5061594;28;20178;-61
2022/04/17 07:43:05;;;;;;;0.30;0.30;;;11.40;99.90;;;;;;5061235;28;20444;-64
2022/04/17 07:45:32;;;;;;;0.25;0.20;;;11.30;99.90;;;;;;5058180;28;20044;-63
2022/04/17 07:47:58;;;;;;;0.13;0.13;;;11.60;99.90;;;;;;5050296;28;20521;-58
2022/04/17 07:50:29;;;;;;;3.40;0.55;;;12.10;99.90;;;;;;5040067;28;20041;-63
2022/04/17 07:52:55;;;;;;;0.08;0.08;;;11.60;99.90;;;;;;5056909;28;20106;-62
2022/04/17 07:55:22;;;;;;;0.32;0.32;;;11.50;99.90;;;;;;5041457;28;20398;-62
2022/04/17 08:00:42;;;;;;;0.05;0.05;;;11.80;99.90;;;;;;5071822;28;20067;-62
2022/04/17 08:03:10;;;;;;;0.10;0.10;;;12.10;99.90;;;;;;5078422;28;20442;-63
2022/04/17 08:05:39;;;;;;;0.00;0.00;;;12.60;99.90;;;;;;5081500;28;20052;-62
2022/04/17 08:08:06;;;;;;;0.80;0.43;;;12.80;99.90;;;;;;5082414;28;20044;-62
2022/04/17 08:10:33;;;;;;;1.08;0.80;;;12.40;99.90;;;;;;5080857;28;20106;-62
2022/04/17 08:12:58;;;;;;;0.20;0.08;;;12.70;99.90;;;;;;5077287;28;20077;-63
2022/04/17 08:15:24;;;;;;;0.30;0.25;;;12.50;99.90;;;;;;5080093;28;20108;-62
2022/04/17 08:17:50;;;;;;;0.30;0.30;;;12.50;99.90;;;;;;5081289;28;20040;-62
2022/04/17 08:20:15;;;;;;;0.20;0.20;;;12.50;99.90;;;;;;5081421;28;20048;-62
2022/04/17 08:22:41;;;;;;;0.70;0.43;;;13.00;99.90;;;;;;5080781;28;20387;-62
2022/04/17 08:25:07;;;;;;;0.00;0.00;;;12.50;99.90;;;;;;5063572;28;20051;-63
2022/04/17 08:27:33;;;;;;;0.10;0.10;;;12.40;99.90;;;;;;5081300;28;20469;-62
2022/04/17 08:29:59;;;;;;;0.10;0.10;;;12.20;99.90;;;;;;5081342;28;20036;-61
2022/04/17 08:32:25;;;;;;;0.30;0.20;;;12.10;99.90;;;;;;5075403;28;20044;-63
2022/04/17 08:34:50;;;;;;;0.95;0.50;;;12.20;99.90;;;;;;5066927;28;20098;-62
2022/04/17 08:37:16;;;;;;;0.32;0.32;;;12.10;99.90;;;;;;5070764;28;20037;-62
2022/04/17 08:39:41;;;;;;;0.77;0.50;;;12.10;99.90;;;;;;5070964;28;20693;-62
2022/04/17 08:42:08;;;;;;;0.10;0.10;;;12.50;99.90;;;;;;5070071;28;20047;-62
2022/04/17 08:44:34;;;;;;;0.22;0.22;;;12.80;99.90;;;;;;5071018;28;20097;-62
2022/04/17 08:46:59;;;;;;;0.28;0.17;;;12.50;99.90;;;;;;5053901;28;20036;-62
2022/04/17 08:49:25;;;;;;;0.17;0.17;;;13.40;99.90;;;;;;5050826;28;20057;-62
2022/04/17 08:51:53;;;;;;;0.10;0.10;;;12.80;99.90;;;;;;5060701;28;20119;-62
2022/04/17 08:54:22;;;;;;;0.47;0.40;;;12.30;99.90;;;;;;5043896;28;20127;-63
2022/04/17 08:56:48;;;;;;;0.43;0.38;;;12.60;99.90;;;;;;5060246;28;20083;-64
2022/04/17 08:59:13;;;;;;;0.20;0.20;;;12.40;99.90;;;;;;5058523;28;20084;-62
2022/04/17 09:01:39;;;;;;;0.13;0.13;;;12.70;99.90;;;;;;5058007;28;20479;-63
2022/04/17 09:04:05;;;;;;;0.50;0.13;;;12.60;99.90;;;;;;5057528;28;20114;-63
2022/04/17 09:06:31;;;;;;;0.05;0.05;;;13.10;99.90;;;;;;5057255;28;20041;-63
2022/04/17 09:09:05;;;;;;;0.00;0.00;;;13.10;99.90;;;;;;5059017;28;20049;-63
2022/04/17 09:11:33;;;;;;;0.10;0.10;;;13.70;99.90;;;;;;5056100;28;20454;-63
2022/04/17 09:14:01;;;;;;;0.55;0.32;;;13.40;99.90;;;;;;5057869;28;20048;-63
2022/04/17 09:16:29;;;;;;;0.10;0.10;;;13.10;99.90;;;;;;5057517;28;20462;-64
2022/04/17 09:18:56;;;;;;;0.10;0.10;;;13.60;99.90;;;;;;5058744;28;20091;-63
2022/04/17 09:21:30;;;;;;;0.20;0.20;;;13.60;99.90;;;;;;5058070;28;20838;-64
2022/04/17 09:24:16;;;;;;;0.00;0.00;;;13.30;99.90;;;;;;5058559;28;20125;-63
2022/04/17 09:26:53;;;;;;;0.00;0.00;;;13.70;99.90;;;;;;5056765;28;20522;-64
2022/04/17 09:29:19;;;;;;;0.03;0.03;;;14.10;99.90;;;;;;5056767;28;20464;-62
2022/04/17 09:31:45;;;;;;;0.13;0.13;;;13.80;99.90;;;;;;5057857;28;20044;-63
2022/04/17 09:34:11;;;;;;;0.20;0.10;;;13.50;99.90;;;;;;5058162;28;20049;-63
2022/04/17 09:36:38;;;;;;;0.52;0.45;;;13.80;99.90;;;;;;5057128;28;20064;-62
2022/04/17 09:39:14;;;;;;;0.00;0.00;;;14.20;99.90;;;;;;5056638;28;20139;-63
2022/04/17 09:41:54;;;;;;;0.20;0.20;;;14.10;98.40;;;;;;5057250;28;20037;-63
2022/04/17 09:44:37;;;;;;;0.32;0.25;;;14.10;98.70;;;;;;5057604;28;20048;-63
2022/04/17 09:47:04;;;;;;;0.32;0.03;;;14.30;97.70;;;;;;5056999;28;20053;-63
2022/04/17 09:49:30;;;;;;;0.20;0.20;;;14.00;96.90;;;;;;5057866;28;20130;-63
2022/04/17 09:52:09;;;;;;;0.10;0.10;;;14.10;97.20;;;;;;5059731;28;20129;-62
2022/04/17 09:54:35;;;;;;;0.32;0.32;;;14.40;97.80;;;;;;5057313;28;20579;-63
2022/04/17 09:57:00;;;;;;;0.00;0.00;;;14.40;97.60;;;;;;5053558;28;20482;-65
2022/04/17 09:59:27;;;;;;;0.00;0.00;;;15.10;97.70;;;;;;5060340;28;20063;-63
2022/04/17 10:01:57;;;;;;;0.65;0.35;;;15.30;97.10;;;;;;5062277;28;20110;-64
2022/04/17 10:04:24;;;;;;;0.00;0.00;;;15.40;97.30;;;;;;5055173;28;20064;-62
2022/04/17 10:06:55;;;;;;;0.00;0.00;;;15.60;95.40;;;;;;5062892;28;20053;-62
2022/04/17 10:09:21;;;;;;;0.32;0.32;;;15.90;94.80;;;;;;5061996;28;20044;-62
2022/04/17 10:11:49;;;;;;;0.10;0.10;;;15.90;93.50;;;;;;5061307;28;20061;-63
2022/04/17 10:14:16;;;;;;;0.10;0.10;;;15.60;93.40;;;;;;5060979;28;20467;-62
2022/04/17 10:16:43;;;;;;;0.25;0.25;;;15.20;93.70;;;;;;5060417;28;20140;-63
2022/04/17 10:19:16;;;;;;;0.35;0.35;;;14.90;94.00;;;;;;5063023;28;20090;-63
2022/04/17 10:21:42;;;;;;;0.80;0.20;;;15.00;94.00;;;;;;5066424;28;20068;-63
2022/04/17 10:24:14;;;;;;;0.10;0.10;;;14.90;94.10;;;;;;5057171;28;20051;-63
2022/04/17 10:26:47;;;;;;;0.05;0.00;;;14.90;94.30;;;;;;5061974;28;20044;-62
2022/04/17 10:29:41;;;;;;;1.60;0.57;;;15.50;95.10;;;;;;5044468;28;20419;-62
2022/04/17 10:32:40;;;;;;;0.00;0.00;;;15.70;93.50;;;;;;5051456;28;20306;-62
2022/04/17 10:35:32;;;;;;;0.90;0.25;;;16.30;94.90;;;;;;5060505;28;20173;-62
2022/04/17 10:38:09;;;;;;;0.00;0.00;;;16.50;93.20;;;;;;5059297;28;20478;-63
2022/04/17 10:40:35;;;;;;;0.10;0.10;;;16.80;93.10;;;;;;5061118;28;20048;-63
2022/04/17 10:43:01;;;;;;;0.20;0.10;;;16.40;92.60;;;;;;5061220;28;20051;-63
2022/04/17 10:45:31;;;;;;;0.00;0.00;;;16.80;92.90;;;;;;5057951;28;20115;-64
2022/04/17 10:48:12;;;;;;;0.00;0.00;;;17.20;93.00;;;;;;5058773;28;20048;-62
2022/04/17 10:50:41;;;;;;;1.98;0.82;;;16.80;91.80;;;;;;5061717;28;20429;-62
2022/04/17 10:53:27;;;;;;;0.70;0.70;;;16.50;92.00;;;;;;5050455;28;20032;-63
2022/04/17 10:56:04;;;;;;;0.10;0.10;;;16.70;92.20;;;;;;5063323;28;20040;-63
2022/04/17 10:58:41;;;;;;;1.75;1.17;;;16.80;91.80;;;;;;5062646;28;20049;-62
2022/04/17 11:01:10;;;;;;;0.40;0.30;;;17.10;91.50;;;;;;5060183;28;20041;-62
2022/04/17 11:03:36;;;;;;;0.20;0.10;;;17.00;91.60;;;;;;5059913;28;20140;-62
2022/04/17 11:06:35;;;;;;;0.20;0.10;;;16.30;91.20;;;;;;5063162;28;20048;-62
2022/04/17 11:09:15;;;;;;;0.00;0.00;;;16.60;91.60;;;;;;5028304;28;20056;-63
2022/04/17 11:11:45;;;;;;;0.22;0.05;;;17.40;92.30;;;;;;5061723;28;20058;-62
2022/04/17 11:14:19;;;;;;;0.00;0.00;;;17.30;91.40;;;;;;5061807;28;20056;-62
2022/04/17 11:16:51;;;;;;;0.10;0.10;;;17.80;90.90;;;;;;5044359;28;20048;-62
2022/04/17 11:19:24;;;;;;;0.20;0.20;;;17.80;90.30;;;;;;5062561;28;20526;-62
2022/04/17 11:21:51;;;;;;;0.45;0.38;;;17.50;90.60;;;;;;5062393;28;20040;-62
2022/04/17 11:24:19;;;;;;;0.08;0.08;;;17.40;90.80;;;;;;5062167;28;20052;-62
2022/04/17 11:26:53;;;;;;;0.32;0.10;;;18.10;92.00;;;;;;5062853;28;20060;-61
2022/04/17 11:29:33;;;;;;;0.00;0.00;;;18.40;90.50;;;;;;5061927;28;20136;-62
2022/04/17 11:31:59;;;;;;;0.00;0.00;;;18.80;90.70;;;;;;5062014;28;21046;-62
2022/04/17 11:34:39;;;;;;;0.00;0.00;;;19.00;90.10;;;;;;5061673;28;20758;-62
2022/04/17 11:37:05;;;;;;;0.22;0.10;;;18.10;85.90;;;;;;5062958;28;20044;-61
2022/04/17 11:39:32;;;;;;;0.00;0.00;;;18.50;87.70;;;;;;5061917;28;20106;-62
2022/04/17 11:41:59;;;;;;;0.00;0.00;;;18.50;87.60;;;;;;5061743;28;20415;-61
2022/04/17 11:44:24;;;;;;;0.20;0.10;;;18.00;91.40;;;;;;5061865;28;20040;-60
2022/04/17 11:46:50;;;;;;;0.00;0.00;;;18.30;90.60;;;;;;5055513;28;20501;-58
2022/04/17 11:49:16;;;;;;;0.43;0.10;;;18.40;90.50;;;;;;5042245;28;20072;-61
2022/04/17 11:51:45;;;;;;;0.00;0.00;;;18.40;87.60;;;;;;5040040;28;20057;-64
2022/04/17 11:54:32;;;;;;;0.05;0.05;;;18.90;90.70;;;;;;5041937;28;20043;-63
2022/04/17 11:56:58;;;;;;;0.13;0.10;;;19.10;87.10;;;;;;5040457;28;20045;-62
2022/04/17 11:59:23;;;;;;;0.17;0.17;;;18.00;83.10;;;;;;5040961;28;20036;-62
2022/04/17 12:02:12;;;;;;;0.10;0.10;;;17.20;83.40;;;;;;5041203;28;20041;-62
2022/04/17 12:04:38;;;;;;;0.25;0.10;;;17.30;84.30;;;;;;5057435;28;20045;-61
2022/04/17 12:07:04;;;;;;;0.20;0.10;;;16.80;84.20;;;;;;5057409;28;20048;-61
2022/04/17 12:09:30;;;;;;;0.30;0.08;;;17.10;85.80;;;;;;5041357;28;20048;-61
2022/04/17 12:11:55;;;;;;;0.10;0.03;;;17.00;84.40;;;;;;5040746;28;20053;-62
2022/04/17 12:14:31;;;;;;;0.38;0.38;;;17.20;84.40;;;;;;5056598;28;20450;-62
2022/04/17 12:16:56;;;;;;;0.08;0.08;;;17.20;82.40;;;;;;5041214;28;20037;-62
2022/04/17 12:19:25;;;;;;;0.10;0.10;;;17.80;84.00;;;;;;5040755;28;20053;-63
2022/04/17 12:21:51;;;;;;;0.20;0.10;;;17.90;83.40;;;;;;5041490;28;20041;-62
2022/04/17 12:24:18;;;;;;;0.52;0.47;;;18.00;85.10;;;;;;5056493;28;20110;-62
2022/04/17 12:26:45;;;;;;;1.42;1.33;;;17.50;83.60;;;;;;5041513;28;20513;-62
2022/04/17 12:29:11;;;;;;;0.03;0.03;;;17.60;83.30;;;;;;5041078;28;20037;-63
2022/04/17 12:31:37;;;;;;;0.10;0.00;;;17.20;82.40;;;;;;5056438;28;20182;-62
2022/04/17 12:34:18;;;;;;;0.43;0.43;;;17.30;83.50;;;;;;5041523;28;20033;-62
2022/04/17 12:36:44;;;;;;;0.90;0.45;;;17.70;83.40;;;;;;5041417;28;20052;-62
2022/04/17 12:39:10;;;;;;;0.20;0.15;;;17.70;82.70;;;;;;5041124;28;20047;-62
2022/04/17 12:41:40;;;;;;;0.00;0.00;;;17.80;83.70;;;;;;5041846;28;20053;-62
2022/04/17 12:44:07;;;;;;;0.10;0.10;;;17.70;79.90;;;;;;5041195;28;20053;-62
2022/04/17 12:46:33;;;;;;;0.00;0.00;;;17.30;78.80;;;;;;5048313;28;20047;-62
2022/04/17 12:49:12;;;;;;;1.05;0.43;;;17.80;80.40;;;;;;5044373;28;20037;-62
2022/04/17 12:51:40;;;;;;;0.00;0.00;;;18.40;83.60;;;;;;5041473;28;20049;-64
2022/04/17 12:54:13;;;;;;;0.00;0.00;;;18.30;80.60;;;;;;5041617;28;20075;-64
2022/04/17 12:56:38;;;;;;;0.47;0.25;;;18.40;80.30;;;;;;5040934;28;20048;-62
2022/04/17 12:59:04;;;;;;;0.00;0.00;;;18.10;80.40;;;;;;5040686;28;20048;-62
2022/04/17 13:01:32;;;;;;;0.00;0.00;;;18.10;80.70;;;;;;5040043;28;20460;-62
2022/04/17 13:04:19;;;;;;;0.00;0.00;;;18.50;81.90;;;;;;5041033;28;20061;-62
2022/04/17 13:06:46;;;;;;;0.00;0.00;;;18.20;82.10;;;;;;5056389;28;20075;-63
2022/04/17 13:09:18;;;;;;;0.00;0.00;;;18.10;79.80;;;;;;5041024;28;20385;-62
2022/04/17 13:11:47;;;;;;;0.00;0.00;;;18.30;79.90;;;;;;5042375;28;20120;-62